Beaver Dam, Arizona
Current Conditions -  °F | °C
As of 9:15 PM on Sunday 19 Oct 2014 (Local Time) from KSGU Reporting Station
Clear Clear  
Wind Chill: 68°   Ceiling: Unl
Heat Index: 68°   Visibility: 10mi
Dew Point: 34°   Wind: 5mph
Humidity: 28%   Direction: 160°SSE
Pressure: 29.94"   Gusts: NA
Location:  36.4285°N, 113.628°W
Report Text: KSGU 200415Z AUTO 16004KT 10SM CLR 20/01 A2994 RMK AO1
Loading
Personal Weather Stations






























Interactive Weather Map
Tropical Storm Tracking
New forecast layout! Learn more

10-Day Weather Forecast

Advertisements
Track Severe Weather on mobile